Flight Track Log - Related Links

Times and Time Zones

All times are in EDT time to prevent confusion due to time zone crossing. See the DAL1903 flight status page for this flight to view local times or setup timezone preferences in your user account.

Time Position Orientation Groundspeed Altitude Reporting Facility
EDT Latitude Longitude Course Direction KTS MPH feet Rate Location/Type
Mon 11:33:13 AM 40.8167 -73.9000 311° West 168 193 1,800  Level New York TRACON
Mon 11:34:14 AM 40.8500 -73.9500 311° West 223 257 3,600 2,579 Climbing New York TRACON
Mon 11:35:14 AM 40.9000 -74.0000 323° Northwest 263 303 7,000 3,200 Climbing New York TRACON
Mon 11:36:14 AM 40.8667 -74.0833 242° Southwest 261 300 10,000 2,622 Climbing New York TRACON
Mon 11:37:13 AM 40.8167 -74.1833 237° Southwest 285 328 12,200 1,850 Climbing New York TRACON
Mon 11:38:14 AM 40.7667 -74.2833 237° Southwest 366 421 13,700 1,924 Climbing New York TRACON
Mon 11:40:17 AM 40.6567 -74.5050 237° Southwest 383 441 18,100 1,989 Climbing New York Center
Mon 11:41:15 AM 40.6011 -74.6114 236° Southwest 388 447 19,700 1,916 Climbing New York Center
Mon 11:42:16 AM 40.5411 -74.7308 237° Southwest 388 447 21,900 1,918 Climbing New York Center
Mon 11:43:17 AM 40.4806 -74.8528 237° Southwest 399 459 23,600 1,613 Climbing New York Center
Mon 11:44:15 AM 40.4156 -74.9800 236° Southwest 409 471 25,100 1,563 Climbing New York Center
Mon 11:45:16 AM 40.3278 -75.1053 227° Southwest 424 488 26,700 1,328 Climbing New York Center
Mon 11:46:17 AM 40.2464 -75.2169 226° Southwest 430 495 27,800 1,008 Climbing New York Center
Mon 11:47:15 AM 40.1650 -75.3342 228° Southwest 430 495 28,700 1,412 Climbing New York Center
Mon 11:48:16 AM 40.0856 -75.4456 227° Southwest 430 495 30,600 1,672 Climbing New York Center
Mon 11:49:17 AM 40.0061 -75.5539 226° Southwest 425 489 32,100 1,736 Climbing New York Center
Mon 11:50:17 AM 39.9286 -75.6653 228° Southwest 425 489 34,100 1,525 Climbing New York Center
Mon 11:51:15 AM 39.8572 -75.7736 229° Southwest 414 476 35,100 958 Climbing New York Center
Mon 11:52:16 AM 39.7900 -75.8825 231° Southwest 406 467 36,000 984 Climbing New York Center
Mon 11:53:17 AM 39.7186 -75.9881 229° Southwest 401 461 37,100 529 Climbing New York Center
Mon 11:55:06 AM 39.5933 -76.1867 231° Southwest 399 459 37,500 216 Climbing Washington Center
Mon 11:56:04 AM 39.5200 -76.2992 230° Southwest 404 465 37,700 202 Climbing Washington Center
Mon 11:57:05 AM 39.4483 -76.4139 231° Southwest 409 471 37,900 149 Climbing Washington Center
Mon 11:58:05 AM 39.3703 -76.5311 229° Southwest 421 484 38,000 50 Climbing Washington Center
Mon 11:59:06 AM 39.2964 -76.6483 231° Southwest 427 491 38,000  Level Washington Center
Mon 12:00:03 PM 39.2203 -76.7678 231° Southwest 427 491 38,000  Level Washington Center
Mon 12:01:04 PM 39.1442 -76.8869 231° Southwest 427 491 38,000  Level Washington Center
Mon 12:02:04 PM 39.0656 -77.0086 230° Southwest 434 499 38,000  Level Washington Center
Mon 12:03:05 PM 38.9789 -77.1083 222° Southwest 428 493 38,000  Level Washington Center
Mon 12:04:05 PM 38.8881 -77.2078 220° Southwest 428 493 38,000 -50 Level Washington Center
Mon 12:05:06 PM 38.7969 -77.3097 221° Southwest 428 493 37,900 -50 Descending Washington Center
Mon 12:06:04 PM 38.7164 -77.3956 220° Southwest 433 498 37,900 51 Level Washington Center
Mon 12:07:04 PM 38.6253 -77.4969 221° Southwest 438 504 38,000 50 Climbing Washington Center
Mon 12:08:05 PM 38.5339 -77.5928 219° Southwest 438 504 38,000  Level Washington Center
Mon 12:09:05 PM 38.4469 -77.6886 221° Southwest 433 498 38,000  Level Washington Center
Mon 12:10:04 PM 38.3597 -77.7842 221° Southwest 428 493 38,000  Level Washington Center
Mon 12:11:05 PM 38.2703 -77.8819 221° Southwest 428 493 38,000  Level Washington Center
Mon 12:12:06 PM 38.1786 -77.9797 220° Southwest 428 493 38,000  Level Washington Center
Mon 12:13:03 PM 38.0892 -78.0769 221° Southwest 428 493 38,000  Level Washington Center
Mon 12:14:04 PM 37.9889 -78.1764 218° Southwest 422 486 38,000  Level Washington Center
Mon 12:15:05 PM 37.9081 -78.2606 219° Southwest 422 486 38,000  Level Washington Center
Mon 12:16:06 PM 37.8119 -78.3492 216° Southwest 422 486 38,000 -50 Level Washington Center
Mon 12:17:06 PM 37.7203 -78.4350 217° Southwest 427 491 37,900  Descending Washington Center
Mon 12:18:04 PM 37.6264 -78.5233 217° Southwest 427 491 38,000 50 Climbing Washington Center
Mon 12:19:05 PM 37.5219 -78.6214 217° Southwest 427 491 38,000  Level Washington Center
Mon 12:20:06 PM 37.4256 -78.7117 217° Southwest 432 497 38,000  Level Washington Center
Mon 12:21:04 PM 37.3294 -78.7992 216° Southwest 432 497 38,000  Level Washington Center
Mon 12:22:04 PM 37.2289 -78.8917 216° Southwest 438 504 38,000  Level Washington Center
Mon 12:23:05 PM 37.1283 -78.9836 216° Southwest 449 517 38,000  Level Washington Center
Mon 12:24:06 PM 37.0322 -79.0625 213° Southwest 454 522 38,000  Level Washington Center
Mon 12:25:06 PM 36.9194 -79.1381 208° Southwest 459 528 38,000  Level Washington Center
Mon 12:26:04 PM 36.8067 -79.2108 207° Southwest 459 528 38,000  Level Washington Center
Mon 12:27:05 PM 36.6958 -79.2858 208° Southwest 464 534 38,000  Level Washington Center
Mon 12:28:05 PM 36.5703 -79.3653 207° Southwest 464 534 38,000  Level Washington Center
Mon 12:29:06 PM 36.4553 -79.4397 208° Southwest 464 534 38,000  Level Washington Center
Mon 12:30:06 PM 36.3444 -79.5117 208° Southwest 464 534 38,000  Level Washington Center
Mon 12:32:45 PM 36.0242 -79.6664 201° Southwest 449 517 38,000 -27 Level Atlanta Center
Mon 12:33:45 PM 35.9117 -79.7289 204° Southwest 443 510 37,900 -50 Descending Atlanta Center
Mon 12:34:45 PM 35.7992 -79.7911 204° Southwest 452 520 37,900 50 Level Atlanta Center
Mon 12:35:45 PM 35.6886 -79.8506 204° Southwest 447 514 38,000 50 Climbing Atlanta Center
Mon 12:36:45 PM 35.5739 -79.9178 205° Southwest 447 514 38,000  Level Atlanta Center
Mon 12:37:45 PM 35.4714 -79.9689 202° Southwest 452 520 38,000  Level Atlanta Center
Mon 12:38:45 PM 35.3564 -80.0281 203° Southwest 452 520 38,000  Level Atlanta Center
Mon 12:39:45 PM 35.2333 -80.0950 204° Southwest 452 520 38,000  Level Atlanta Center
Mon 12:41:27 PM 35.0553 -80.2047 207° Southwest 448 516 38,000  Level Jacksonville Center
Mon 12:42:27 PM 34.9506 -80.2814 211° Southwest 442 509 38,000  Level Jacksonville Center
Mon 12:43:27 PM 34.8478 -80.3581 211° Southwest 442 509 38,000 -50 Level Jacksonville Center
Mon 12:44:27 PM 34.7406 -80.4267 208° Southwest 440 506 37,900 -50 Descending Jacksonville Center
Mon 12:45:27 PM 34.6250 -80.4906 204° Southwest 440 506 37,900 50 Level Jacksonville Center
Mon 12:46:27 PM 34.5094 -80.5544 204° Southwest 452 520 38,000 50 Climbing Jacksonville Center
Mon 12:47:27 PM 34.3936 -80.6128 203° Southwest 457 526 38,000 -50 Level Jacksonville Center
Mon 12:48:27 PM 34.2800 -80.6736 204° Southwest 457 526 37,900  Descending Jacksonville Center
Mon 12:49:27 PM 34.1683 -80.7317 203° Southwest 452 520 38,000  Climbing Jacksonville Center
Mon 12:50:27 PM 34.0547 -80.7922 204° Southwest 452 520 37,900  Descending Jacksonville Center
Mon 12:51:27 PM 33.9431 -80.8497 203° Southwest 452 520 38,000 50 Climbing Jacksonville Center
Mon 12:52:27 PM 33.8311 -80.9075 203° Southwest 452 520 38,000  Level Jacksonville Center
Mon 12:53:27 PM 33.7133 -80.9675 203° Southwest 457 526 38,000  Level Jacksonville Center
Mon 12:54:27 PM 33.5994 -81.0272 204° Southwest 457 526 38,000 -50 Level Jacksonville Center
Mon 12:55:27 PM 33.4856 -81.0869 204° Southwest 457 526 37,900 -50 Descending Jacksonville Center
Mon 12:56:28 PM 33.3736 -81.1439 203° Southwest 457 526 37,900  Level Jacksonville Center
Mon 12:57:27 PM 33.2575 -81.2033 203° Southwest 457 526 37,900  Level Jacksonville Center
Mon 12:58:27 PM 33.1433 -81.2578 202° Southwest 457 526 37,900 50 Level Jacksonville Center
Mon 12:59:27 PM 33.0314 -81.3167 204° Southwest 452 520 38,000 50 Climbing Jacksonville Center
Mon 01:00:27 PM 32.9047 -81.3783 202° Southwest 457 526 38,000  Level Jacksonville Center
Mon 01:01:27 PM 32.7908 -81.4369 203° Southwest 452 520 38,000  Level Jacksonville Center
Mon 01:02:27 PM 32.6786 -81.4931 203° Southwest 445 512 38,000  Level Jacksonville Center
Mon 01:03:27 PM 32.5789 -81.5442 203° Southwest 440 506 38,000  Level Jacksonville Center
Mon 01:04:27 PM 32.4522 -81.6075 203° Southwest 440 506 38,000  Level Jacksonville Center
Mon 01:05:27 PM 32.3506 -81.6581 203° Southwest 435 501 38,000  Level Jacksonville Center
Mon 01:06:27 PM 32.2217 -81.7211 202° Southwest 447 514 38,000  Level Jacksonville Center
Mon 01:07:27 PM 32.1053 -81.7717 200° South 447 514 38,000  Level Jacksonville Center
Mon 01:08:27 PM 31.9928 -81.7953 190° South 449 517 38,000  Level Jacksonville Center
Mon 01:09:27 PM 31.8592 -81.8211 189° South 449 517 38,000  Level Jacksonville Center
Mon 01:10:27 PM 31.7489 -81.8444 190° South 449 517 38,000  Level Jacksonville Center
Mon 01:11:27 PM 31.6133 -81.8728 190° South 454 522 38,000  Level Jacksonville Center
Mon 01:12:27 PM 31.4903 -81.8986 190° South 449 517 38,000  Level Jacksonville Center
Mon 01:13:27 PM 31.3778 -81.9242 191° South 455 524 38,000  Level Jacksonville Center
Mon 01:14:27 PM 31.2547 -81.9519 191° South 455 524 38,000  Level Jacksonville Center
Mon 01:15:27 PM 31.1297 -81.9775 190° South 455 524 38,000 -50 Level Jacksonville Center
Mon 01:16:27 PM 31.0067 -82.0056 191° South 455 524 37,900  Descending Jacksonville Center
Mon 01:17:27 PM 30.8794 -82.0308 190° South 455 524 38,000 50 Climbing Jacksonville Center
Mon 01:18:27 PM 30.7544 -82.0586 191° South 461 531 38,000 -50 Level Jacksonville Center
Mon 01:19:27 PM 30.6314 -82.0839 190° South 461 531 37,900 -50 Descending Jacksonville Center
Mon 01:20:27 PM 30.4917 -82.1067 188° South 467 537 37,900 50 Level Jacksonville Center
Mon 01:21:27 PM 30.3644 -82.1317 190° South 467 537 38,000 50 Climbing Jacksonville Center
Mon 01:22:27 PM 30.2372 -82.1592 191° South 467 537 38,000 -1,050 Level Jacksonville Center
Mon 01:23:27 PM 30.1081 -82.1842 190° South 467 537 35,900 -2,650 Descending Jacksonville Center
Mon 01:24:27 PM 29.9767 -82.2164 192° South 467 537 32,700 -3,250 Descending Jacksonville Center
Mon 01:25:27 PM 29.8494 -82.2436 191° South 473 544 29,400 -2,850 Descending Jacksonville Center
Mon 01:26:27 PM 29.7181 -82.2636 188° South 473 544 27,000 -1,350 Descending Jacksonville Center
Mon 01:27:27 PM 29.5844 -82.2550 177° South 473 544 26,700 -1,350 Descending Jacksonville Center
Mon 01:28:27 PM 29.4506 -82.2344 172° South 479 551 24,300 -1,500 Descending Jacksonville Center
Mon 01:29:27 PM 29.3189 -82.2139 172° South 479 551 23,700 -1,250 Descending Jacksonville Center
Mon 01:30:27 PM 29.2208 -82.2003 173° South 474 545 21,800 -2,200 Descending Jacksonville Center
Mon 01:31:27 PM 29.0850 -82.1822 173° South 455 524 19,300 -2,250 Descending Jacksonville Center
Mon 01:32:27 PM 28.9700 -82.1639 172° South 443 510 17,300 -1,700 Descending Jacksonville Center
Mon 01:33:27 PM 28.8553 -82.1458 172° South 429 494 15,900 -1,217 Descending Jacksonville Center
Mon 01:35:59 PM 28.5667 -82.1000 172° South 387 445 13,000 -1,302 Descending Tampa TRACON
Mon 01:36:59 PM 28.4667 -82.0833 172° South 372 428 11,300 -1,111 Descending Tampa TRACON
Mon 01:37:47 PM 28.4000 -82.0833 180° South 361 415 11,000 -158 Descending Tampa TRACON
Mon 01:38:53 PM 28.2833 -82.0500 166° South 369 425 11,000  Level Tampa TRACON
Mon 01:39:53 PM 28.1667 -82.0500 180° South 366 421 11,000  Level Tampa TRACON
Mon 01:40:53 PM 28.0667 -82.0333 172° South 368 423 11,000  Level Tampa TRACON
Mon 01:41:59 PM 27.9667 -82.0333 180° South 378 435 11,000 -48 Level Tampa TRACON
Mon 01:42:59 PM 27.8833 -82.1167 221° Southwest 361 415 10,900 -474 Descending Tampa TRACON
Mon 01:43:53 PM 27.8333 -82.1667 221° Southwest 312 359 10,100 -1,278 Descending Tampa TRACON
Mon 01:44:47 PM 27.7667 -82.2333 222° Southwest 300 345 8,600 -1,636 Descending Tampa TRACON
Mon 01:46:05 PM 27.7000 -82.3000 222° Southwest 298 343 6,500 -1,238 Descending Tampa TRACON
Mon 01:46:53 PM 27.6667 -82.3667 241° Southwest 285 328 6,000 -389 Descending Tampa TRACON
Mon 01:47:53 PM 27.6333 -82.4500 246° West 280 322 5,800 -550 Descending Tampa TRACON
Mon 01:48:53 PM 27.6167 -82.5167 254° West 252 290 4,900 -895 Descending Tampa TRACON
Mon 01:49:47 PM 27.5833 -82.5833 241° Southwest 223 257 4,100 -905 Descending Tampa TRACON
Mon 01:50:59 PM 27.5500 -82.6500 241° Southwest 202 232 3,000 -682 Descending Tampa TRACON
Mon 01:51:59 PM 27.5000 -82.6500 180° South 181 208 2,600 -400 Descending Tampa TRACON

Login

Don't have an account? Register now (free) for customized features, flight alerts, and more!